Time;durP1;ratioP1;P1;durP2;ratioP2;P2;SDS_P1;SDS_P2;PMS_P1;PMS_P2;Temp;Humidity;BMP_temperature;BMP_pressure;BME280_temperature;BME280_humidity;BME280_pressure;Samples;Min_cycle;Max_cycle;Signal;HPM_P1;HPM_P2
2021/03/08 00:01:05;;;;;;;58.80;26.80;;;;;;;3.96;53.13;94665.69;5014057;28;20260;-74
2021/03/08 00:03:30;;;;;;;60.17;27.37;;;;;;;3.80;53.59;94669.84;5012867;28;20197;-69
2021/03/08 00:05:56;;;;;;;55.37;25.77;;;;;;;4.04;52.72;94674.69;5013970;28;20169;-68
2021/03/08 00:08:21;;;;;;;58.97;27.20;;;;;;;4.18;52.56;94675.34;5014362;28;20208;-68
2021/03/08 00:10:47;;;;;;;58.43;26.27;;;;;;;4.18;52.21;94678.00;5013955;28;20589;-68
2021/03/08 00:13:12;;;;;;;51.03;23.33;;;;;;;4.22;52.38;94673.66;5014202;28;20180;-69
2021/03/08 00:15:38;;;;;;;53.50;24.77;;;;;;;4.25;52.25;94678.31;5013920;28;20177;-68
2021/03/08 00:18:03;;;;;;;53.20;25.73;;;;;;;4.19;52.77;94671.63;5014179;28;20173;-68
2021/03/08 00:20:29;;;;;;;57.87;24.40;;;;;;;4.24;51.83;94668.84;5014156;28;20260;-73
2021/03/08 00:22:55;;;;;;;52.80;23.83;;;;;;;4.24;51.99;94666.97;5012347;28;20189;-68
2021/03/08 00:25:25;;;;;;;50.90;24.00;;;;;;;3.86;53.57;94664.09;5014033;28;20242;-68
2021/03/08 00:27:51;;;;;;;54.47;24.73;;;;;;;3.67;53.73;94656.44;5013600;28;20173;-74
2021/03/08 00:30:17;;;;;;;51.57;25.37;;;;;;;3.12;55.49;94659.47;5013902;28;20722;-73
2021/03/08 00:32:43;;;;;;;58.00;24.17;;;;;;;3.18;55.02;94652.22;5013817;28;20187;-71
2021/03/08 00:35:09;;;;;;;54.87;25.43;;;;;;;3.34;54.35;94652.59;5013852;28;20804;-68
2021/03/08 00:37:34;;;;;;;53.87;24.77;;;;;;;3.67;54.08;94647.75;5012292;28;20279;-68
2021/03/08 00:40:04;;;;;;;45.97;22.80;;;;;;;3.71;53.98;94649.47;5012068;28;20243;-72
2021/03/08 00:42:30;;;;;;;52.95;23.27;;;;;;;3.79;52.23;94626.81;5013242;28;20177;-74
2021/03/08 00:44:55;;;;;;;52.50;23.73;;;;;;;3.97;53.00;94649.50;5013724;28;20169;-71
2021/03/08 00:47:21;;;;;;;54.17;24.30;;;;;;;3.91;53.22;94650.75;5013512;28;20216;-74
2021/03/08 00:49:47;;;;;;;51.67;24.17;;;;;;;4.04;52.99;94656.19;5013395;28;20173;-71
2021/03/08 00:52:13;;;;;;;46.25;22.80;;;;;;;4.08;53.02;94643.94;5013394;28;20224;-68
2021/03/08 00:54:39;;;;;;;46.20;22.70;;;;;;;4.11;52.89;94645.97;5013258;28;20541;-68
2021/03/08 00:57:04;;;;;;;42.93;22.07;;;;;;;4.08;52.38;94643.94;5013144;28;20178;-68
2021/03/08 00:59:30;;;;;;;53.07;23.60;;;;;;;3.53;53.67;94649.72;5013182;28;20622;-67
2021/03/08 01:01:55;;;;;;;48.23;24.87;;;;;;;2.75;56.50;94636.94;5013215;28;20599;-67
2021/03/08 01:04:21;;;;;;;48.83;24.70;;;;;;;3.00;55.78;94640.03;5013096;28;20260;-69
2021/03/08 01:06:46;;;;;;;46.93;21.83;;;;;;;3.00;55.94;94632.88;5011571;28;20512;-75
2021/03/08 01:09:12;;;;;;;50.60;24.40;;;;;;;2.92;55.96;94631.00;5013002;28;20168;-71
2021/03/08 01:11:37;;;;;;;55.00;23.93;;;;;;;2.46;57.17;94628.66;5013105;28;20173;-67
2021/03/08 01:14:03;;;;;;;50.63;23.97;;;;;;;2.34;58.17;94623.94;5013026;28;20177;-67
2021/03/08 01:16:28;;;;;;;52.37;24.13;;;;;;;2.43;58.28;94618.75;5012158;28;20263;-67
2021/03/08 01:18:54;;;;;;;53.67;23.57;;;;;;;3.05;56.64;94610.88;5013016;28;20216;-75
2021/03/08 01:21:20;;;;;;;52.07;24.17;;;;;;;3.35;55.00;94604.00;5012733;28;20633;-73
2021/03/08 01:23:45;;;;;;;53.47;24.88;;;;;;;3.39;54.17;94603.09;5011712;28;20181;-70
2021/03/08 01:26:11;;;;;;;49.30;23.63;;;;;;;2.69;56.29;94605.72;5012348;28;20235;-68
2021/03/08 01:28:36;;;;;;;53.90;26.07;;;;;;;2.78;56.56;94604.69;5012524;28;20177;-74
2021/03/08 01:31:02;;;;;;;53.30;24.27;;;;;;;2.79;56.66;94606.25;5012479;28;20173;-68
2021/03/08 01:33:27;;;;;;;50.60;23.73;;;;;;;2.86;56.50;94603.16;5012734;28;20260;-76
2021/03/08 01:35:53;;;;;;;53.50;24.90;;;;;;;3.21;55.58;94596.22;5012582;28;20177;-76
2021/03/08 01:38:18;;;;;;;44.77;24.03;;;;;;;3.54;54.38;94599.28;5012324;28;20192;-68
2021/03/08 01:40:44;;;;;;;52.50;24.73;;;;;;;3.77;53.59;94596.53;5012493;28;20169;-75
2021/03/08 01:43:10;;;;;;;53.70;25.17;;;;;;;3.87;53.87;94606.75;5012262;28;20183;-74
2021/03/08 01:45:35;;;;;;;54.83;25.37;;;;;;;3.70;54.66;94596.94;5011532;28;20264;-74
2021/03/08 01:48:01;;;;;;;49.80;24.67;;;;;;;3.92;53.07;94598.69;5012362;28;20208;-68
2021/03/08 01:50:35;;;;;;;52.47;25.07;;;;;;;2.76;56.46;94590.28;5012416;28;20618;-71
2021/03/08 01:53:01;;;;;;;48.33;24.02;;;;;;;2.44;57.48;94586.03;5011951;28;20306;-74
2021/03/08 01:55:26;;;;;;;48.87;25.53;;;;;;;3.00;56.19;94576.72;5011169;28;20211;-68
2021/03/08 01:57:52;;;;;;;45.67;22.77;;;;;;;3.23;55.44;94578.19;5010879;28;20173;-67
2021/03/08 02:00:18;;;;;;;54.27;23.93;;;;;;;3.29;55.10;94576.97;5010530;28;20217;-71
2021/03/08 02:02:44;;;;;;;50.90;23.53;;;;;;;2.84;56.34;94563.16;5011917;28;20181;-74
2021/03/08 02:05:13;;;;;;;51.47;23.07;;;;;;;2.65;56.52;94579.19;5012224;28;20177;-75
2021/03/08 02:07:38;;;;;;;49.13;24.73;;;;;;;2.37;57.61;94578.56;5012141;28;20644;-68
2021/03/08 02:10:11;;;;;;;55.77;24.43;;;;;;;2.59;57.54;94567.22;5011937;28;20188;-68
2021/03/08 02:13:14;;;;;;;52.20;23.75;;;;;;;2.33;58.40;94567.84;5011808;28;20238;-68
2021/03/08 02:16:02;;;;;;;50.45;24.45;;;;;;;2.38;58.35;94567.72;4916713;29;20591;-74
2021/03/08 02:18:40;;;;;;;46.67;22.27;;;;;;;2.77;56.73;94562.81;4916299;29;20199;-74
2021/03/08 02:21:30;;;;;;;47.90;21.92;;;;;;;2.74;56.75;94566.03;4932386;29;20206;-68
2021/03/08 02:24:14;;;;;;;45.70;21.08;;;;;;;3.08;55.98;94562.78;4916729;29;20192;-68
2021/03/08 02:26:52;;;;;;;54.25;25.48;;;;;;;2.73;56.58;94567.91;4917879;29;20190;-73
2021/03/08 02:29:42;;;;;;;50.97;22.50;;;;;;;2.34;57.73;94560.69;4932424;29;20678;-70
2021/03/08 02:32:09;;;;;;;51.20;23.42;;;;;;;2.43;57.84;94555.50;4918942;29;20187;-71
2021/03/08 02:34:45;;;;;;;43.85;22.85;;;;;;;2.21;58.36;94556.28;4932055;29;20179;-70
2021/03/08 02:37:20;;;;;;;47.85;23.00;;;;;;;2.73;57.01;94546.03;4901531;29;20203;-67
2021/03/08 02:39:48;;;;;;;49.85;22.42;;;;;;;2.55;58.14;94548.59;4931946;29;20222;-71
2021/03/08 02:42:21;;;;;;;49.72;21.80;;;;;;;2.96;56.36;94550.16;4916317;29;20713;-68
2021/03/08 02:44:47;;;;;;;50.78;23.98;;;;;;;3.06;55.62;94557.03;4916142;29;20284;-68
2021/03/08 02:47:12;;;;;;;45.58;21.48;;;;;;;2.76;56.76;94556.00;4916382;29;20191;-72
2021/03/08 02:49:39;;;;;;;46.00;23.97;;;;;;;2.89;56.50;94547.97;4916024;29;20266;-67
2021/03/08 02:52:08;;;;;;;51.13;22.70;;;;;;;2.52;57.78;94553.69;4942134;28;20221;-66
2021/03/08 02:54:34;;;;;;;45.58;21.83;;;;;;;2.73;56.65;94557.34;5010373;28;20760;-69
2021/03/08 02:57:04;;;;;;;48.90;21.93;;;;;;;2.42;57.86;94540.78;4993700;28;20177;-67
2021/03/08 02:59:35;;;;;;;43.75;22.50;;;;;;;3.12;55.79;94529.44;4994053;28;20319;-67
2021/03/08 03:02:00;;;;;;;41.80;20.52;;;;;;;3.07;56.06;94554.09;5009940;28;20608;-67
2021/03/08 03:04:26;;;;;;;41.00;20.50;;;;;;;3.35;55.01;94557.28;4993853;28;20189;-68
2021/03/08 03:06:51;;;;;;;42.87;21.70;;;;;;;3.47;54.98;94548.75;5009943;28;20235;-67
2021/03/08 03:09:18;;;;;;;50.17;22.43;;;;;;;3.54;54.54;94540.41;4993731;28;20682;-71
2021/03/08 03:11:48;;;;;;;45.83;20.90;;;;;;;3.45;54.89;94545.66;4993668;28;20220;-68
2021/03/08 03:14:14;;;;;;;41.05;21.13;;;;;;;2.88;56.66;94549.06;4994357;28;20177;-67
2021/03/08 03:16:40;;;;;;;40.73;20.70;;;;;;;2.78;56.91;94541.41;5010065;28;20724;-67
2021/03/08 03:19:05;;;;;;;47.97;21.47;;;;;;;3.26;55.16;94539.88;4993344;28;20288;-72
2021/03/08 03:21:32;;;;;;;41.60;20.63;;;;;;;3.19;55.74;94535.03;4993094;28;20703;-74
2021/03/08 03:23:58;;;;;;;50.67;21.80;;;;;;;2.81;56.22;94540.81;5009261;28;20243;-67
2021/03/08 03:26:24;;;;;;;43.20;22.73;;;;;;;3.01;56.19;94539.47;4993254;28;20216;-69
2021/03/08 03:28:49;;;;;;;42.07;20.30;;;;;;;2.87;56.38;94517.72;5008636;28;20229;-69
2021/03/08 03:31:16;;;;;;;48.20;21.70;;;;;;;3.41;55.69;94540.22;5010105;28;20168;-74
2021/03/08 03:33:41;;;;;;;38.38;20.20;;;;;;;3.52;54.85;94539.94;5009756;28;20188;-67
2021/03/08 03:36:07;;;;;;;45.07;22.07;;;;;;;3.54;54.15;94535.13;5010207;28;20563;-67
2021/03/08 03:38:32;;;;;;;44.33;20.47;;;;;;;3.49;54.36;94535.28;5009713;28;20196;-73
2021/03/08 03:40:58;;;;;;;39.63;20.43;;;;;;;3.40;54.69;94535.25;5012213;28;20204;-69
2021/03/08 03:43:23;;;;;;;45.43;20.43;;;;;;;3.37;54.71;94528.75;5014605;28;20180;-69
2021/03/08 03:45:49;;;;;;;42.43;19.60;;;;;;;2.99;55.83;94532.97;5014587;28;20272;-68
2021/03/08 03:48:14;;;;;;;41.60;20.03;;;;;;;3.23;55.36;94527.28;5014475;28;20205;-72
2021/03/08 03:50:40;;;;;;;43.60;22.47;;;;;;;2.57;57.14;94529.81;5014563;28;20173;-70
2021/03/08 03:53:06;;;;;;;48.73;22.63;;;;;;;3.06;55.06;94530.66;5014539;28;20311;-69
2021/03/08 03:55:32;;;;;;;41.53;20.77;;;;;;;2.90;56.49;94538.97;5013317;28;20193;-71
2021/03/08 03:58:29;;;;;;;40.80;20.43;;;;;;;2.42;57.43;94538.91;5014480;28;20188;-74
2021/03/08 04:00:58;;;;;;;38.30;20.25;;;;;;;2.90;56.44;94533.69;5013172;28;20304;-75
2021/03/08 04:03:26;;;;;;;40.97;21.25;;;;;;;3.09;55.65;94535.34;5014188;28;20177;-69
2021/03/08 04:05:52;;;;;;;43.25;20.80;;;;;;;2.92;56.93;94539.47;5013206;28;20176;-68
2021/03/08 04:08:18;;;;;;;44.75;21.90;;;;;;;2.65;56.87;94537.03;5013720;28;20185;-70
2021/03/08 04:10:44;;;;;;;45.53;21.73;;;;;;;2.92;56.67;94539.47;5012547;28;20185;-71
2021/03/08 04:13:11;;;;;;;43.03;19.90;;;;;;;3.09;56.06;94538.75;5012762;28;20724;-69
2021/03/08 04:15:37;;;;;;;44.15;22.55;;;;;;;3.13;55.84;94536.25;5012892;28;20204;-68
2021/03/08 04:18:03;;;;;;;39.77;20.13;;;;;;;3.06;55.43;94535.94;5013023;28;20177;-69
2021/03/08 04:20:29;;;;;;;43.30;20.37;;;;;;;2.98;56.24;94534.84;4996539;28;20228;-68
2021/03/08 04:22:55;;;;;;;45.63;19.60;;;;;;;3.09;55.40;94530.06;5012712;28;20636;-74
2021/03/08 04:25:20;;;;;;;41.95;21.20;;;;;;;2.92;56.05;94541.34;5012339;28;20185;-69
2021/03/08 04:27:47;;;;;;;44.77;20.83;;;;;;;2.82;57.21;94537.09;5012840;28;20185;-69
2021/03/08 04:30:15;;;;;;;41.88;20.55;;;;;;;2.87;56.44;94531.69;5013693;28;20189;-74
2021/03/08 04:32:40;;;;;;;36.35;20.95;;;;;;;2.72;56.98;94532.09;5013905;28;20660;-73
2021/03/08 04:35:07;;;;;;;45.57;20.23;;;;;;;2.93;56.04;94521.78;5013570;28;20188;-69
2021/03/08 04:37:32;;;;;;;41.50;21.00;;;;;;;3.02;55.35;94538.41;5012440;28;20686;-71
2021/03/08 04:39:58;;;;;;;40.17;21.53;;;;;;;2.97;56.37;94532.47;5012354;28;20220;-70
2021/03/08 04:42:23;;;;;;;43.30;20.60;;;;;;;3.01;56.15;94536.84;5012419;28;20181;-73
2021/03/08 04:44:49;;;;;;;38.23;19.90;;;;;;;3.10;55.91;94532.38;5012348;28;20198;-72
2021/03/08 04:47:18;;;;;;;45.00;21.47;;;;;;;3.08;55.59;94533.75;5013355;28;20181;-69
2021/03/08 04:49:44;;;;;;;47.22;22.48;;;;;;;3.08;55.90;94534.53;5012268;28;20177;-72
2021/03/08 04:52:12;;;;;;;51.00;24.13;;;;;;;3.15;55.41;94526.19;4994462;28;20225;-68
2021/03/08 04:54:37;;;;;;;44.97;22.13;;;;;;;2.15;58.07;94539.06;5012301;28;20177;-74
2021/03/08 04:57:03;;;;;;;47.63;22.90;;;;;;;2.26;58.53;94535.09;5012083;28;20192;-73
2021/03/08 04:59:28;;;;;;;55.63;23.63;;;;;;;2.45;58.14;94540.16;5012034;28;20216;-71
2021/03/08 05:01:54;;;;;;;47.37;22.80;;;;;;;2.51;57.03;94517.88;5011874;28;20172;-72
2021/03/08 05:04:19;;;;;;;43.97;21.83;;;;;;;2.58;57.20;94548.00;4995860;28;20562;-68
2021/03/08 05:06:45;;;;;;;42.80;21.47;;;;;;;2.59;57.64;94549.53;5012061;28;20580;-70
2021/03/08 05:09:12;;;;;;;41.20;20.87;;;;;;;2.40;57.93;94551.59;4995302;28;20212;-69
2021/03/08 05:11:37;;;;;;;40.90;22.15;;;;;;;2.67;56.28;94534.84;4995721;28;20260;-68
2021/03/08 05:14:04;;;;;;;40.47;20.40;;;;;;;2.47;57.14;94551.16;5013016;28;20272;-69
2021/03/08 05:16:31;;;;;;;48.60;21.85;;;;;;;2.10;58.75;94547.84;5011728;28;20168;-69
2021/03/08 05:18:57;;;;;;;46.58;19.88;;;;;;;2.45;57.53;94548.06;5011473;28;20215;-68
2021/03/08 05:21:22;;;;;;;43.93;20.03;;;;;;;2.86;56.55;94547.78;5011681;28;20173;-69
2021/03/08 05:23:48;;;;;;;43.93;22.10;;;;;;;2.83;56.58;94541.28;5011350;28;20548;-76
2021/03/08 05:26:13;;;;;;;40.60;20.33;;;;;;;2.88;56.90;94543.78;5011641;28;20203;-69
2021/03/08 05:28:39;;;;;;;44.40;21.77;;;;;;;2.78;57.11;94525.59;5012629;28;20204;-71
2021/03/08 05:31:05;;;;;;;53.57;25.43;;;;;;;2.71;56.37;94535.03;5011626;28;20169;-73
2021/03/08 05:33:30;;;;;;;49.00;23.77;;;;;;;2.33;58.68;94524.91;5012750;28;20681;-69
2021/03/08 05:35:57;;;;;;;49.00;23.37;;;;;;;2.58;57.35;94532.19;5012493;28;20185;-71
2021/03/08 05:38:24;;;;;;;52.65;26.50;;;;;;;2.91;56.57;94535.25;5011320;28;20624;-73
2021/03/08 05:40:53;;;;;;;51.05;24.70;;;;;;;2.96;56.48;94534.34;5011231;28;20181;-71
2021/03/08 05:43:18;;;;;;;56.88;26.00;;;;;;;3.06;56.26;94528.78;5012478;28;20173;-68
2021/03/08 05:45:55;;;;;;;54.77;25.17;;;;;;;3.21;55.34;94537.38;5012092;28;20188;-72
2021/03/08 05:48:46;;;;;;;56.28;24.30;;;;;;;3.15;55.32;94540.16;5012396;28;20177;-71
2021/03/08 05:51:39;;;;;;;60.88;26.55;;;;;;;3.20;55.07;94541.88;5011019;28;20263;-69
2021/03/08 05:54:42;;;;;;;52.75;26.10;;;;;;;3.32;55.45;94544.72;5012040;28;20185;-71
2021/03/08 05:57:23;;;;;;;59.50;24.92;;;;;;;3.31;55.22;94552.91;5010940;28;20183;-71
2021/03/08 06:00:06;;;;;;;55.08;25.65;;;;;;;3.31;55.55;94559.00;5012176;28;20205;-68
2021/03/08 06:02:57;;;;;;;56.80;26.67;;;;;;;3.62;54.81;94544.91;5011683;28;20183;-72
2021/03/08 06:05:35;;;;;;;61.28;26.15;;;;;;;3.73;54.44;94551.47;5010545;28;20177;-71
2021/03/08 06:08:54;;;;;;;55.30;26.52;;;;;;;3.66;54.97;94548.50;5011960;28;20648;-68
2021/03/08 06:11:20;;;;;;;52.97;26.42;;;;;;;3.83;54.36;94556.44;4970818;28;20270;-68
2021/03/08 06:13:53;;;;;;;54.53;26.07;;;;;;;3.35;55.76;94540.66;4954536;28;20272;-71
2021/03/08 06:16:36;;;;;;;60.63;25.58;;;;;;;3.82;54.29;94552.25;4955341;28;20178;-67
2021/03/08 06:19:05;;;;;;;58.55;25.83;;;;;;;3.89;53.56;94565.75;4956130;28;20217;-69
2021/03/08 06:21:34;;;;;;;56.25;25.85;;;;;;;4.03;53.39;94556.91;4970846;28;20591;-69
2021/03/08 06:24:00;;;;;;;53.35;25.38;;;;;;;3.97;53.15;94554.41;4970670;28;20186;-68
2021/03/08 06:26:26;;;;;;;60.57;26.03;;;;;;;3.77;55.02;94564.81;4970672;28;20205;-69
2021/03/08 06:28:51;;;;;;;53.13;25.57;;;;;;;4.19;53.27;94566.69;4970248;28;20275;-68
2021/03/08 06:31:17;;;;;;;59.70;27.07;;;;;;;3.84;55.59;94558.00;4970611;28;20197;-73
2021/03/08 06:33:42;;;;;;;59.33;26.23;;;;;;;4.09;54.29;94556.44;4970753;28;20558;-71
2021/03/08 06:36:08;;;;;;;51.50;24.90;;;;;;;4.26;53.85;94558.28;4970491;28;20213;-71
2021/03/08 06:38:33;;;;;;;49.03;24.50;;;;;;;4.51;52.83;94557.50;4970594;28;20186;-69
2021/03/08 06:40:59;;;;;;;51.63;25.80;;;;;;;4.74;53.02;94559.94;4970341;28;20178;-69
2021/03/08 06:43:26;;;;;;;57.43;26.67;;;;;;;4.56;53.13;94558.41;4954689;28;20186;-69
2021/03/08 06:45:51;;;;;;;55.78;26.88;;;;;;;4.86;52.05;94556.63;5000634;28;20195;-69
2021/03/08 06:48:17;;;;;;;45.73;24.57;;;;;;;4.93;51.77;94551.63;5011797;28;20628;-73
2021/03/08 06:50:42;;;;;;;52.77;24.60;;;;;;;5.23;51.61;94560.38;5010105;28;20177;-73
2021/03/08 06:53:08;;;;;;;50.47;24.73;;;;;;;5.30;50.34;94563.31;5010131;28;20232;-71
2021/03/08 06:55:34;;;;;;;61.43;23.97;;;;;;;5.23;51.03;94541.84;5010292;28;20606;-72
2021/03/08 06:58:16;;;;;;;53.78;26.65;;;;;;;5.25;49.96;94564.25;5011521;28;20255;-70
2021/03/08 07:00:42;;;;;;;47.40;22.43;;;;;;;5.44;50.02;94566.47;5011437;28;20203;-71
2021/03/08 07:03:07;;;;;;;43.73;21.70;;;;;;;5.52;49.71;94560.38;5026546;28;20444;-70
2021/03/08 07:05:32;;;;;;;47.70;24.10;;;;;;;5.71;48.98;94559.94;5010336;28;20173;-68
2021/03/08 07:07:59;;;;;;;42.77;22.13;;;;;;;5.59;49.65;94565.16;5011272;28;20316;-73
2021/03/08 07:10:35;;;;;;;49.23;22.37;;;;;;;5.69;50.14;94564.03;5011480;28;20185;-71
2021/03/08 07:13:01;;;;;;;43.03;20.60;;;;;;;5.65;49.19;94565.75;5010925;28;20415;-70
2021/03/08 07:15:26;;;;;;;44.63;19.73;;;;;;;5.93;48.37;94568.72;5011503;28;20438;-72
2021/03/08 07:17:52;;;;;;;43.60;20.47;;;;;;;5.95;48.55;94562.03;5014797;28;20636;-73
2021/03/08 07:20:17;;;;;;;42.47;21.50;;;;;;;5.63;48.81;94567.97;5013433;28;20216;-74
2021/03/08 07:22:47;;;;;;;44.20;22.67;;;;;;;5.84;49.23;94558.16;5014957;28;20179;-71
2021/03/08 07:25:17;;;;;;;43.33;22.63;;;;;;;6.08;48.07;94552.25;5015047;28;20652;-71
2021/03/08 07:27:43;;;;;;;45.03;21.53;;;;;;;6.10;47.21;94550.81;5014647;28;20439;-75
2021/03/08 07:30:10;;;;;;;45.70;23.53;;;;;;;6.15;47.92;94559.69;5015005;28;20448;-69
2021/03/08 07:32:56;;;;;;;46.87;21.67;;;;;;;6.30;47.39;94556.44;5014592;28;20515;-70
2021/03/08 07:35:33;;;;;;;44.23;21.77;;;;;;;6.28;47.58;94559.41;5014873;28;20412;-69
2021/03/08 07:37:59;;;;;;;40.20;23.33;;;;;;;6.43;46.75;94552.72;5014783;28;20938;-69
2021/03/08 07:40:24;;;;;;;56.60;23.63;;;;;;;6.65;47.04;94550.81;5014711;28;20465;-69
2021/03/08 07:42:50;;;;;;;43.73;21.67;;;;;;;6.84;47.01;94553.72;5013382;28;20518;-68
2021/03/08 07:45:16;;;;;;;43.20;21.53;;;;;;;6.82;46.49;94547.97;5014982;28;20192;-67
2021/03/08 07:47:42;;;;;;;51.87;23.87;;;;;;;6.83;46.34;94549.53;5012911;28;20189;-69
2021/03/08 07:50:39;;;;;;;50.73;22.47;;;;;;;6.62;47.07;94549.56;5014543;28;20789;-68
2021/03/08 07:53:25;;;;;;;43.40;22.70;;;;;;;6.95;46.08;94551.41;4973032;28;20234;-71
2021/03/08 07:55:54;;;;;;;47.50;22.67;;;;;;;7.19;46.07;94545.38;4973119;28;20429;-69
2021/03/08 07:58:19;;;;;;;45.67;21.30;;;;;;;7.08;46.27;94529.13;4973318;28;20426;-70
2021/03/08 08:00:45;;;;;;;44.87;21.70;;;;;;;7.21;44.54;94533.31;4973529;28;20418;-69
2021/03/08 08:03:11;;;;;;;38.67;20.67;;;;;;;6.85;46.39;94531.41;4972969;28;20282;-72
2021/03/08 08:05:36;;;;;;;37.13;20.93;;;;;;;6.94;46.86;94524.09;4973131;28;20205;-70
2021/03/08 08:08:02;;;;;;;38.10;19.00;;;;;;;7.11;46.04;94528.44;4972887;28;20218;-68
2021/03/08 08:10:27;;;;;;;43.10;21.00;;;;;;;7.35;44.90;94527.66;4957053;28;20178;-73
2021/03/08 08:12:53;;;;;;;39.77;20.90;;;;;;;7.43;45.55;94532.88;4972928;28;20182;-67
2021/03/08 08:15:18;;;;;;;45.87;21.00;;;;;;;7.48;45.54;94531.88;4956866;28;20217;-66
2021/03/08 08:17:45;;;;;;;48.37;20.63;;;;;;;7.65;44.47;94528.22;4972322;28;20265;-67
2021/03/08 08:20:11;;;;;;;45.97;20.50;;;;;;;7.65;44.22;94518.34;4972617;28;20206;-68
2021/03/08 08:22:38;;;;;;;45.13;20.30;;;;;;;7.86;44.66;94528.06;4972146;28;20522;-67
2021/03/08 08:25:04;;;;;;;49.03;20.60;;;;;;;7.81;44.88;94531.72;4956682;28;20533;-70
2021/03/08 08:27:30;;;;;;;43.27;21.90;;;;;;;7.99;44.64;94526.16;4957643;28;20434;-68
2021/03/08 08:29:59;;;;;;;41.00;21.50;;;;;;;8.06;44.27;94526.34;5012585;28;20173;-71
2021/03/08 08:32:24;;;;;;;40.43;21.00;;;;;;;8.17;43.32;94519.44;5013802;28;20272;-70
2021/03/08 08:34:50;;;;;;;38.10;21.13;;;;;;;8.05;42.83;94520.25;5012267;28;20877;-73
2021/03/08 08:37:23;;;;;;;45.47;21.30;;;;;;;8.09;44.07;94517.69;5013783;28;20204;-68
2021/03/08 08:39:51;;;;;;;46.50;20.73;;;;;;;8.41;43.53;94510.59;5012363;28;20259;-69
2021/03/08 08:42:20;;;;;;;40.13;21.70;;;;;;;8.49;44.38;94509.69;5013670;28;20445;-72
2021/03/08 08:44:47;;;;;;;53.07;19.73;;;;;;;8.76;42.45;94504.69;5013357;28;20416;-73
2021/03/08 08:47:24;;;;;;;42.87;21.20;;;;;;;8.68;42.22;94503.72;5013552;28;20424;-73
2021/03/08 08:49:50;;;;;;;42.67;20.53;;;;;;;8.60;42.33;94502.75;5013105;28;20416;-68
2021/03/08 08:52:50;;;;;;;45.13;20.23;;;;;;;8.91;41.61;94510.00;5011723;28;21020;-69
2021/03/08 08:55:16;;;;;;;35.63;18.77;;;;;;;9.02;42.28;94507.59;5012321;28;20554;-68
2021/03/08 08:58:21;;;;;;;40.47;20.37;;;;;;;8.92;41.55;94510.75;5013231;28;20424;-69
2021/03/08 09:04:08;;;;;;;38.03;19.93;;;;;;;8.83;42.73;94491.53;4972239;28;20417;-71
2021/03/08 09:06:57;;;;;;;48.17;19.77;;;;;;;9.25;41.46;94491.78;4971880;28;20462;-69
2021/03/08 09:09:31;;;;;;;40.07;22.07;;;;;;;9.45;40.82;94485.41;4971961;28;20430;-70
2021/03/08 09:12:03;;;;;;;37.20;20.07;;;;;;;9.55;40.25;94492.09;4971945;28;20521;-72
2021/03/08 09:14:47;;;;;;;41.43;20.93;;;;;;;9.27;41.00;94485.00;4971804;28;20430;-68
2021/03/08 09:17:29;;;;;;;38.63;19.10;;;;;;;9.67;40.30;94488.53;4971863;28;20955;-70
2021/03/08 09:19:54;;;;;;;35.87;19.67;;;;;;;9.56;40.38;94485.63;4971639;28;20842;-71
2021/03/08 09:22:20;;;;;;;47.97;21.33;;;;;;;9.74;40.53;94478.00;4971904;28;20434;-72
2021/03/08 09:24:46;;;;;;;40.87;19.67;;;;;;;10.27;41.19;94463.13;4971660;28;20198;-70
2021/03/08 09:27:28;;;;;;;37.60;20.37;;;;;;;10.53;40.72;94472.34;4971601;28;20186;-68
2021/03/08 09:29:55;;;;;;;42.73;20.20;;;;;;;10.68;39.63;94470.69;4956357;28;20476;-72
2021/03/08 09:32:20;;;;;;;41.70;20.70;;;;;;;10.35;39.42;94464.00;4971725;28;20617;-72
2021/03/08 09:34:46;;;;;;;37.57;19.63;;;;;;;10.45;39.76;94457.34;4971601;28;20429;-72
2021/03/08 09:37:12;;;;;;;50.23;21.90;;;;;;;10.54;39.46;94453.28;4985380;28;20189;-68
2021/03/08 09:39:48;;;;;;;40.90;21.47;;;;;;;10.62;40.87;94456.09;5012110;28;20209;-70
2021/03/08 09:42:13;;;;;;;40.60;22.03;;;;;;;10.68;38.97;94460.03;5012549;28;20713;-69
2021/03/08 09:44:40;;;;;;;45.53;21.17;;;;;;;11.06;38.67;94451.88;5012324;28;20416;-74
2021/03/08 09:47:05;;;;;;;40.70;21.53;;;;;;;11.05;39.11;94449.56;5012561;28;20181;-68
2021/03/08 09:49:50;;;;;;;43.47;21.40;;;;;;;11.31;38.79;94456.81;5012599;28;20480;-69
2021/03/08 09:52:34;;;;;;;41.63;21.07;;;;;;;11.65;37.68;94449.66;5010925;28;20223;-73
2021/03/08 09:54:59;;;;;;;43.93;20.97;;;;;;;11.45;38.57;94450.91;5012070;28;20481;-71
2021/03/08 09:57:38;;;;;;;39.73;20.63;;;;;;;11.56;37.82;94451.81;5012303;28;20804;-69
2021/03/08 10:00:13;;;;;;;46.23;21.40;;;;;;;11.72;37.64;94439.06;5012343;28;20211;-73
2021/03/08 10:02:39;;;;;;;36.53;19.77;;;;;;;11.87;36.55;94435.47;5012232;28;20505;-68
2021/03/08 10:05:07;;;;;;;44.40;20.57;;;;;;;11.62;37.60;94435.13;5010388;28;20510;-69
2021/03/08 10:07:32;;;;;;;44.60;21.03;;;;;;;11.63;36.21;94435.91;5012466;28;20234;-71
2021/03/08 10:10:08;;;;;;;35.97;18.73;;;;;;;11.95;36.98;94425.59;5011813;28;20943;-70
2021/03/08 10:12:33;;;;;;;44.20;20.13;;;;;;;12.12;35.66;94419.72;5011892;28;20185;-67
2021/03/08 10:14:59;;;;;;;38.73;21.50;;;;;;;12.15;35.17;94418.19;5011696;28;20419;-67
2021/03/08 10:17:25;;;;;;;38.13;21.13;;;;;;;12.16;35.51;94414.38;5012187;28;20672;-73
2021/03/08 10:19:57;;;;;;;41.37;21.67;;;;;;;12.26;35.86;94419.09;5011616;28;20525;-73
2021/03/08 10:22:33;;;;;;;42.77;21.37;;;;;;;12.53;35.81;94422.44;5011971;28;20176;-70
2021/03/08 10:25:00;;;;;;;43.53;22.23;;;;;;;12.43;35.42;94415.06;5010085;28;20428;-68
2021/03/08 10:27:26;;;;;;;41.57;22.10;;;;;;;12.71;35.61;94409.19;5011873;28;20527;-68
2021/03/08 10:29:52;;;;;;;42.00;21.37;;;;;;;13.16;34.77;94408.00;5011788;28;20427;-72
2021/03/08 10:32:17;;;;;;;53.37;22.70;;;;;;;13.22;35.02;94401.19;5011788;28;20640;-69
2021/03/08 10:34:42;;;;;;;37.80;20.23;;;;;;;13.27;33.91;94400.06;5010599;28;20626;-71
2021/03/08 10:37:10;;;;;;;38.53;20.03;;;;;;;13.66;33.16;94396.84;5010571;28;20181;-69
2021/03/08 10:39:35;;;;;;;40.63;19.30;;;;;;;13.55;32.58;94404.84;5010439;28;20254;-69
2021/03/08 10:42:01;;;;;;;39.93;18.33;;;;;;;13.36;32.69;94403.22;5011496;28;20970;-70
2021/03/08 10:44:26;;;;;;;40.27;18.60;;;;;;;13.42;32.73;94400.94;5010550;28;20169;-73
2021/03/08 10:46:52;;;;;;;39.37;18.57;;;;;;;13.25;34.05;94397.00;5010259;28;20176;-72
2021/03/08 10:49:17;;;;;;;36.13;17.97;;;;;;;13.54;33.29;94391.81;5010402;28;20686;-69
2021/03/08 10:51:43;;;;;;;37.77;16.33;;;;;;;13.79;33.64;94381.19;5013685;28;20275;-70
2021/03/08 10:54:12;;;;;;;31.93;16.13;;;;;;;13.66;32.20;94381.53;5015719;28;20177;-70
2021/03/08 10:56:42;;;;;;;29.73;15.80;;;;;;;13.57;33.60;94386.44;5015385;28;20184;-69
2021/03/08 10:59:28;;;;;;;40.57;17.60;;;;;;;13.93;32.55;94384.69;4997358;28;20593;-69
2021/03/08 11:02:05;;;;;;;36.93;14.67;;;;;;;14.16;32.16;94362.16;5013677;28;20808;-68
2021/03/08 11:04:31;;;;;;;24.20;12.53;;;;;;;13.93;32.17;94354.41;5015577;28;20519;-71
2021/03/08 11:06:56;;;;;;;27.63;12.97;;;;;;;13.87;32.53;94351.31;5015173;28;20510;-69
2021/03/08 11:09:29;;;;;;;22.43;12.37;;;;;;;13.83;31.75;94350.53;5014078;28;20185;-72
2021/03/08 11:11:55;;;;;;;25.03;12.57;;;;;;;13.65;32.14;94323.66;5015103;28;20177;-68
2021/03/08 11:14:20;;;;;;;28.73;13.60;;;;;;;13.90;32.52;94339.81;5015147;28;20404;-69
2021/03/08 11:16:53;;;;;;;28.23;12.33;;;;;;;13.95;31.21;94336.00;5013981;28;20171;-69
2021/03/08 11:19:24;;;;;;;22.87;11.03;;;;;;;14.24;31.56;94329.53;5015255;28;20683;-68
2021/03/08 11:22:03;;;;;;;13.13;7.77;;;;;;;14.16;29.64;94317.28;5013934;28;20420;-69
2021/03/08 11:24:31;;;;;;;13.37;5.80;;;;;;;14.27;28.81;94318.06;5013984;28;20458;-72
2021/03/08 11:27:24;;;;;;;8.27;5.03;;;;;;;14.38;27.97;94306.56;5014694;28;20834;-69
2021/03/08 11:30:00;;;;;;;6.73;4.00;;;;;;;14.68;28.10;94301.59;5014964;28;20423;-71
2021/03/08 11:32:26;;;;;;;8.10;4.20;;;;;;;14.89;28.10;94300.81;5013727;28;20942;-72
2021/03/08 11:34:52;;;;;;;8.00;3.57;;;;;;;14.92;25.22;94293.88;5015065;28;20506;-69
2021/03/08 11:37:18;;;;;;;9.40;4.00;;;;;;;14.97;24.93;94296.94;5013566;28;20797;-70